Time;durP1;ratioP1;P1;durP2;ratioP2;P2;SDS_P1;SDS_P2;PMS_P1;PMS_P2;Temp;Humidity;BMP_temperature;BMP_pressure;BME280_temperature;BME280_humidity;BME280_pressure;Samples;Min_cycle;Max_cycle;Signal;HPM_P1;HPM_P2
2022/11/09 00:01:27;;;;;;;;;3.33;1.00;;;;;16.37;100.00;100474.16;5058053;28;57830;-74
2022/11/09 00:04:00;;;;;;;;;1.00;1.00;;;;;16.37;100.00;100476.84;5056956;28;46435;-75
2022/11/09 00:06:26;;;;;;;;;4.00;1.00;;;;;16.41;100.00;100479.41;5057097;28;45365;-73
2022/11/09 00:08:52;;;;;;;;;3.67;1.00;;;;;16.40;100.00;100482.97;5058245;28;45439;-74
2022/11/09 00:11:18;;;;;;;;;2.00;2.00;;;;;16.40;100.00;100482.97;5058259;28;45491;-75
2022/11/09 00:13:44;;;;;;;;;1.00;1.00;;;;;16.37;100.00;100490.16;5057138;28;47697;-75
2022/11/09 00:16:11;;;;;;;;;1.33;1.00;;;;;16.38;100.00;100494.56;5051324;28;45177;-75
2022/11/09 00:18:37;;;;;;;;;3.00;2.00;;;;;16.35;100.00;100492.88;5175907;22;47273;-74
2022/11/09 00:21:11;;;;;;;;;2.00;1.00;;;;;16.35;100.00;100498.19;5099102;27;45830;-75
2022/11/09 00:23:37;;;;;;;;;3.00;1.00;;;;;16.32;100.00;100489.38;5097756;27;46624;-75
2022/11/09 00:26:04;;;;;;;;;1.00;1.00;;;;;16.28;100.00;100477.88;5098692;27;45313;-75
2022/11/09 00:28:30;;;;;;;;;3.00;2.00;;;;;16.20;100.00;100456.72;5097840;27;45410;-76
2022/11/09 00:30:59;;;;;;;;;2.33;1.00;;;;;16.22;100.00;100444.22;5099099;27;45203;-76
2022/11/09 00:33:24;;;;;;;;;3.00;2.00;;;;;16.17;100.00;100438.09;5097816;27;46650;-75
2022/11/09 00:35:50;;;;;;;;;2.33;1.00;;;;;16.17;100.00;100429.25;5089390;27;64957;-75
2022/11/09 00:38:15;;;;;;;;;1.33;1.33;;;;;16.21;100.00;100442.47;5097394;27;63084;-77
2022/11/09 00:40:40;;;;;;;;;2.33;1.00;;;;;16.17;100.00;100447.88;5097675;27;53544;-75
2022/11/09 00:43:06;;;;;;;;;2.00;2.00;;;;;16.18;100.00;100458.50;5097578;27;66678;-75
2022/11/09 00:45:31;;;;;;;;;4.67;3.67;;;;;16.21;100.00;100454.94;5096690;27;45492;-75
2022/11/09 00:47:56;;;;;;;;;4.67;2.00;;;;;16.21;100.00;100453.13;5098491;27;45363;-75
2022/11/09 00:50:22;;;;;;;;;4.00;1.67;;;;;16.20;100.00;100464.69;5097858;27;61728;-75
2022/11/09 00:52:47;;;;;;;;;3.00;2.00;;;;;16.21;100.00;100482.44;5097834;27;64671;-75
2022/11/09 00:55:13;;;;;;;;;3.67;1.33;;;;;16.17;100.00;100479.84;5098625;27;45460;-75
2022/11/09 00:57:38;;;;;;;;;1.67;1.67;;;;;16.10;100.00;100464.91;5092388;27;45405;-75
2022/11/09 01:00:04;;;;;;;;;2.00;1.00;;;;;16.10;100.00;100475.53;5098079;27;56190;-74
2022/11/09 01:02:29;;;;;;;;;2.00;2.00;;;;;16.10;100.00;100468.44;5098508;27;45470;-75
2022/11/09 01:04:55;;;;;;;;;2.00;1.33;;;;;16.09;100.00;100472.00;5097433;27;65679;-75
2022/11/09 01:07:20;;;;;;;;;0.67;0.67;;;;;16.04;100.00;100468.53;5098114;27;58482;-75
2022/11/09 01:09:45;;;;;;;;;3.00;2.00;;;;;16.06;100.00;100468.50;5085610;27;57204;-75
2022/11/09 01:12:11;;;;;;;;;1.00;1.00;;;;;16.02;100.00;100459.69;5097364;27;64428;-75
2022/11/09 01:14:36;;;;;;;;;3.00;1.00;;;;;15.98;100.00;100474.84;5097338;27;63657;-76
2022/11/09 01:17:01;;;;;;;;;3.00;2.00;;;;;15.97;100.00;100486.38;5098122;27;45379;-75
2022/11/09 01:19:27;;;;;;;;;2.00;1.00;;;;;15.94;100.00;100480.25;5097647;27;45512;-77
2022/11/09 01:21:52;;;;;;;;;3.00;1.00;;;;;15.90;100.00;100487.41;5081299;27;63659;-76
2022/11/09 01:24:17;;;;;;;;;2.00;1.00;;;;;15.85;100.00;100494.59;5096904;27;64273;-76
2022/11/09 01:26:43;;;;;;;;;3.00;1.00;;;;;15.79;100.00;100494.69;5094833;27;57398;-76
2022/11/09 01:29:08;;;;;;;;;2.00;2.00;;;;;15.71;100.00;100485.94;5097049;27;56381;-75
2022/11/09 01:31:33;;;;;;;;;6.67;1.33;;;;;15.69;100.00;100501.06;5095945;27;69188;-75
2022/11/09 01:33:59;;;;;;;;;1.00;1.00;;;;;15.59;100.00;100489.63;5095071;27;64419;-74
2022/11/09 01:36:24;;;;;;;;;1.00;1.00;;;;;15.59;100.00;100504.72;5089748;27;54903;-74
2022/11/09 01:38:50;;;;;;;;;2.00;0.33;;;;;15.60;100.00;100514.47;5096395;27;55665;-75
2022/11/09 01:41:21;;;;;;;;;2.67;1.00;;;;;15.57;100.00;100523.38;5097122;27;45742;-76
2022/11/09 01:44:10;;;;;;;;;0.67;0.67;;;;;15.53;100.00;100521.66;5096921;27;46606;-75
2022/11/09 01:46:42;;;;;;;;;2.33;1.00;;;;;15.45;100.00;100511.13;5092428;27;45306;-74
2022/11/09 01:49:36;;;;;;;;;4.67;1.33;;;;;15.46;100.00;100522.66;5097247;27;45603;-75
2022/11/09 01:52:29;;;;;;;;;2.67;1.00;;;;;15.42;100.00;100537.78;5069388;27;46419;-75
2022/11/09 01:55:19;;;;;;;;;1.67;1.00;;;;;15.40;100.00;100533.38;5096603;27;45362;-75
2022/11/09 01:57:55;;;;;;;;;1.00;1.00;;;;;15.35;100.00;100538.75;5078644;27;45500;-76
2022/11/09 02:00:21;;;;;;;;;0.00;0.00;;;;;15.34;100.00;100533.44;5107514;27;45393;-74
2022/11/09 02:03:04;;;;;;;;;3.00;0.00;;;;;15.29;100.00;100533.53;5097309;27;45461;-77
2022/11/09 02:05:31;;;;;;;;;4.00;1.00;;;;;15.29;100.00;100541.50;5097163;27;45561;-74
2022/11/09 02:07:58;;;;;;;;;1.00;1.00;;;;;15.26;100.00;100530.91;5092937;27;45392;-76
2022/11/09 02:10:30;;;;;;;;;2.67;1.00;;;;;15.23;100.00;100530.03;5095842;27;55349;-75
2022/11/09 02:12:57;;;;;;;;;1.67;0.00;;;;;15.21;100.00;100538.06;5095658;27;46207;-75
2022/11/09 02:15:23;;;;;;;;;0.00;0.00;;;;;15.19;100.00;100545.19;5097581;27;45193;-75
2022/11/09 02:17:52;;;;;;;;;0.00;0.00;;;;;15.15;100.00;100536.34;5084111;27;45196;-75
2022/11/09 02:20:17;;;;;;;;;0.00;0.00;;;;;15.10;100.00;100522.22;5092364;27;45935;-75
2022/11/09 02:22:43;;;;;;;;;0.00;0.00;;;;;15.12;100.00;100527.53;5088376;27;45479;-74
2022/11/09 02:25:10;;;;;;;;;0.00;0.00;;;;;15.05;100.00;100515.22;5089682;27;45730;-75
2022/11/09 02:27:36;;;;;;;;;1.00;0.00;;;;;15.03;100.00;100515.25;5095358;27;45450;-76
2022/11/09 02:30:04;;;;;;;;;2.00;0.00;;;;;15.02;100.00;100510.84;5091735;27;45552;-74
2022/11/09 02:32:29;;;;;;;;;2.00;0.00;;;;;15.01;100.00;100517.03;5094339;27;46450;-75
2022/11/09 02:34:55;;;;;;;;;0.00;0.00;;;;;14.97;100.00;100502.03;5094542;27;45301;-75
2022/11/09 02:37:29;;;;;;;;;0.00;0.00;;;;;14.93;100.00;100511.81;5093506;27;45484;-75
2022/11/09 02:39:56;;;;;;;;;3.00;0.00;;;;;14.97;100.00;100517.06;5096958;27;45203;-77
2022/11/09 02:42:22;;;;;;;;;0.67;0.67;;;;;14.95;100.00;100517.09;5093434;27;46565;-76
2022/11/09 02:44:52;;;;;;;;;0.00;0.00;;;;;14.91;100.00;100507.41;5095156;27;64289;-76
2022/11/09 02:47:17;;;;;;;;;0.00;0.00;;;;;14.94;100.00;100531.28;5095895;27;45441;-76
2022/11/09 02:49:42;;;;;;;;;1.00;0.00;;;;;14.91;100.00;100534.88;5092086;27;56059;-76
2022/11/09 02:52:08;;;;;;;;;1.33;0.33;;;;;14.88;100.00;100526.94;5085140;27;68312;-75
2022/11/09 02:54:33;;;;;;;;;2.00;0.00;;;;;14.87;100.00;100537.59;5092252;27;63516;-76
2022/11/09 02:56:58;;;;;;;;;0.00;0.00;;;;;14.89;100.00;100536.66;5086659;27;45419;-75
2022/11/09 02:59:24;;;;;;;;;0.00;0.00;;;;;14.86;100.00;100535.81;5082814;27;45275;-75
2022/11/09 03:01:49;;;;;;;;;0.67;0.67;;;;;14.86;100.00;100543.78;5095878;27;70036;-75
2022/11/09 03:04:14;;;;;;;;;0.00;0.00;;;;;14.85;100.00;100547.34;5095374;27;53982;-75
2022/11/09 03:06:40;;;;;;;;;0.00;0.00;;;;;14.84;100.00;100565.06;5094869;27;56319;-74
2022/11/09 03:09:10;;;;;;;;;0.00;0.00;;;;;14.84;100.00;100559.75;5096691;27;45526;-76
2022/11/09 03:11:36;;;;;;;;;0.00;0.00;;;;;14.81;100.00;100565.13;5096868;27;45813;-74
2022/11/09 03:14:02;;;;;;;;;2.00;0.00;;;;;14.74;100.00;100559.88;5096777;27;45440;-74
2022/11/09 03:16:27;;;;;;;;;3.00;0.00;;;;;14.79;100.00;100572.22;5095304;27;45193;-74
2022/11/09 03:18:53;;;;;;;;;2.00;0.00;;;;;14.72;100.00;100553.69;5093171;27;45586;-75
2022/11/09 03:21:18;;;;;;;;;0.00;0.00;;;;;14.65;100.00;100548.47;5095259;27;47402;-74
2022/11/09 03:23:44;;;;;;;;;0.00;0.00;;;;;14.67;100.00;100556.41;5092936;27;45422;-75
2022/11/09 03:26:09;;;;;;;;;0.67;0.00;;;;;14.56;100.00;100535.25;5094530;27;45467;-76
2022/11/09 03:28:35;;;;;;;;;1.67;0.00;;;;;14.61;100.00;100553.81;5095740;27;45621;-76
2022/11/09 03:31:00;;;;;;;;;2.00;1.00;;;;;14.60;100.00;100562.69;5088547;27;54946;-76
2022/11/09 03:33:25;;;;;;;;;0.00;0.00;;;;;14.60;100.00;100552.06;5095498;27;62613;-76
2022/11/09 03:35:51;;;;;;;;;0.00;0.00;;;;;14.53;100.00;100548.56;5095590;27;56491;-74
2022/11/09 03:38:16;;;;;;;;;1.00;0.00;;;;;14.57;100.00;100568.91;5095243;27;45593;-75
2022/11/09 03:40:42;;;;;;;;;0.00;0.00;;;;;14.53;100.00;100561.84;5094185;27;45679;-76
2022/11/09 03:43:07;;;;;;;;;0.67;0.00;;;;;14.56;100.00;100567.13;5093656;27;67736;-75
2022/11/09 03:45:32;;;;;;;;;0.00;0.00;;;;;14.51;100.00;100554.78;5094844;27;45373;-74
2022/11/09 03:47:59;;;;;;;;;2.33;0.00;;;;;14.50;100.00;100561.88;5094467;27;45387;-76
2022/11/09 03:50:26;;;;;;;;;0.00;0.00;;;;;14.54;100.00;100576.00;5083017;27;47317;-75
2022/11/09 03:52:51;;;;;;;;;0.67;0.00;;;;;14.49;100.00;100573.41;5095686;27;45226;-75
2022/11/09 03:55:17;;;;;;;;;1.00;0.00;;;;;14.52;100.00;100570.72;5097739;27;49866;-76
2022/11/09 03:57:44;;;;;;;;;0.00;0.00;;;;;14.47;100.00;100564.56;5097141;27;45631;-75
2022/11/09 04:00:09;;;;;;;;;0.00;0.00;;;;;14.49;100.00;100573.41;5098042;27;45774;-74
2022/11/09 04:02:35;;;;;;;;;0.00;0.00;;;;;14.46;100.00;100570.75;5092330;27;45219;-75
2022/11/09 04:05:00;;;;;;;;;1.67;0.00;;;;;14.48;100.00;100576.94;5095828;27;46441;-75
2022/11/09 04:07:25;;;;;;;;;0.33;0.00;;;;;14.49;100.00;100577.81;5097670;27;54769;-74
2022/11/09 04:09:51;;;;;;;;;0.00;0.00;;;;;14.44;100.00;100571.66;5097267;27;71564;-75
2022/11/09 04:12:16;;;;;;;;;1.00;0.00;;;;;14.47;100.00;100588.47;5097266;27;63617;-75
2022/11/09 04:14:41;;;;;;;;;1.00;0.00;;;;;14.41;100.00;100583.19;5098674;27;45361;-75
2022/11/09 04:17:07;;;;;;;;;1.00;0.00;;;;;14.38;100.00;100591.16;5095147;27;55431;-74
2022/11/09 04:19:32;;;;;;;;;0.00;0.00;;;;;14.38;100.00;100592.06;5098295;27;46454;-74
2022/11/09 04:21:57;;;;;;;;;1.00;0.00;;;;;14.42;100.00;100595.56;5094852;27;47871;-76
2022/11/09 04:24:23;;;;;;;;;0.00;0.00;;;;;14.37;100.00;100600.91;5092473;27;59360;-74
2022/11/09 04:26:48;;;;;;;;;0.00;0.00;;;;;14.38;100.00;100612.41;5097620;27;61763;-77
2022/11/09 04:29:13;;;;;;;;;2.00;0.00;;;;;14.35;100.00;100616.00;5097270;27;68440;-74
2022/11/09 04:31:39;;;;;;;;;1.00;0.00;;;;;14.34;100.00;100624.84;5096483;27;65420;-74
2022/11/09 04:34:04;;;;;;;;;0.00;0.00;;;;;14.32;100.00;100615.13;5095900;27;57421;-74
2022/11/09 04:36:30;;;;;;;;;0.00;0.00;;;;;14.32;100.00;100626.63;5078257;27;45733;-75
2022/11/09 04:38:55;;;;;;;;;0.00;0.00;;;;;14.32;100.00;100628.41;5091009;27;46489;-73
2022/11/09 04:41:20;;;;;;;;;2.00;0.00;;;;;14.32;100.00;100631.94;5088681;27;51129;-75
2022/11/09 04:43:46;;;;;;;;;0.00;0.00;;;;;14.27;100.00;100622.25;5093594;27;60497;-74
2022/11/09 04:46:11;;;;;;;;;2.00;0.00;;;;;14.24;100.00;100631.13;5094414;27;45420;-73
2022/11/09 04:48:37;;;;;;;;;0.00;0.00;;;;;14.29;100.00;100641.72;5096587;27;46256;-75
2022/11/09 04:51:07;;;;;;;;;0.00;0.00;;;;;14.23;100.00;100640.00;5081258;27;45248;-76
2022/11/09 04:53:33;;;;;;;;;2.33;0.00;;;;;14.26;100.00;100641.72;5083833;27;45325;-75
2022/11/09 04:55:58;;;;;;;;;1.33;0.00;;;;;14.24;100.00;100641.75;5088507;27;45318;-75
2022/11/09 04:58:24;;;;;;;;;3.00;0.00;;;;;14.23;100.00;100642.66;5090938;27;45547;-75
2022/11/09 05:00:50;;;;;;;;;0.00;0.00;;;;;14.17;100.00;100624.09;5106005;27;45350;-75
2022/11/09 05:03:16;;;;;;;;;0.00;0.00;;;;;14.21;100.00;100635.56;5096279;27;45270;-75
2022/11/09 05:05:41;;;;;;;;;0.00;0.00;;;;;14.14;100.00;100635.63;5097408;27;45939;-74
2022/11/09 05:08:07;;;;;;;;;4.00;1.00;;;;;14.23;100.00;100641.78;5098168;27;46023;-76
2022/11/09 05:10:33;;;;;;;;;0.00;0.00;;;;;14.19;100.00;100627.63;5094995;27;45207;-74
2022/11/09 05:13:03;;;;;;;;;1.67;0.00;;;;;14.18;100.00;100631.19;5097759;27;45322;-74
2022/11/09 05:15:29;;;;;;;;;0.00;0.00;;;;;14.16;100.00;100628.50;5097716;27;45563;-74
2022/11/09 05:17:55;;;;;;;;;1.00;0.00;;;;;14.17;100.00;100632.06;5097429;27;46333;-73
2022/11/09 05:20:20;;;;;;;;;0.00;0.00;;;;;14.11;100.00;100627.69;5097064;27;45297;-76
2022/11/09 05:25:29;;;;;;;;;0.00;0.00;;;;;14.20;100.00;100639.13;5096015;27;45350;-74
2022/11/09 05:27:55;;;;;;;;;0.00;0.00;;;;;14.20;100.00;100652.41;5096792;27;46086;-74
2022/11/09 05:30:20;;;;;;;;;3.33;0.00;;;;;14.22;100.00;100653.25;5092599;27;45333;-74
2022/11/09 05:32:46;;;;;;;;;0.00;0.00;;;;;14.22;100.00;100651.50;5097773;27;46011;-74
2022/11/09 05:35:11;;;;;;;;;0.00;0.00;;;;;14.22;100.00;100655.91;5096630;27;45369;-75
2022/11/09 05:37:38;;;;;;;;;0.67;0.67;;;;;14.22;100.00;100658.56;5096919;27;45478;-75
2022/11/09 05:40:04;;;;;;;;;0.00;0.00;;;;;14.16;100.00;100646.22;5096768;27;46418;-76
2022/11/09 05:42:29;;;;;;;;;2.00;0.00;;;;;14.22;100.00;100646.19;5096918;27;45392;-75
2022/11/09 05:44:54;;;;;;;;;0.00;0.00;;;;;14.20;100.00;100644.44;5088886;27;60757;-75
2022/11/09 05:47:20;;;;;;;;;1.00;0.00;;;;;14.16;100.00;100639.13;5088179;27;45522;-75
2022/11/09 05:49:45;;;;;;;;;2.33;0.00;;;;;14.20;100.00;100642.66;5095113;27;45339;-76
2022/11/09 05:52:11;;;;;;;;;1.00;0.00;;;;;14.20;100.00;100644.44;5095253;27;45445;-74
2022/11/09 05:54:36;;;;;;;;;1.00;0.00;;;;;14.18;100.00;100644.44;5096401;27;45858;-72
2022/11/09 05:57:02;;;;;;;;;1.67;0.00;;;;;14.20;100.00;100650.63;5090024;27;65102;-75
2022/11/09 05:59:27;;;;;;;;;3.00;0.00;;;;;14.21;100.00;100652.38;5091976;27;45439;-76
2022/11/09 06:01:52;;;;;;;;;2.00;0.00;;;;;14.20;100.00;100652.41;5095607;27;59855;-73
2022/11/09 06:04:18;;;;;;;;;3.00;0.00;;;;;14.19;100.00;100667.44;5094920;27;60785;-74
2022/11/09 06:06:43;;;;;;;;;0.00;0.00;;;;;14.22;100.00;100664.78;5088963;27;62481;-74
2022/11/09 06:09:08;;;;;;;;;0.33;0.33;;;;;14.20;100.00;100663.91;5095757;27;61651;-74
2022/11/09 06:11:34;;;;;;;;;0.67;0.00;;;;;14.20;100.00;100663.03;5094083;27;60202;-74
2022/11/09 06:13:59;;;;;;;;;2.67;0.00;;;;;14.23;100.00;100670.97;5096202;27;47359;-75
2022/11/09 06:27:07;;;;;;;;;1.67;0.00;;;;;14.22;100.00;100682.47;5076314;27;45607;-75
2022/11/09 06:29:32;;;;;;;;;0.00;0.00;;;;;14.21;100.00;100683.38;5094122;27;57935;-78
2022/11/09 06:31:57;;;;;;;;;3.00;0.00;;;;;14.16;100.00;100672.78;5087127;27;55196;-76
2022/11/09 06:34:23;;;;;;;;;1.00;0.00;;;;;14.20;100.00;100687.81;5102241;27;63009;-76
2022/11/09 06:36:48;;;;;;;;;0.00;0.00;;;;;14.19;100.00;100682.50;5076429;27;51853;-76
2022/11/09 06:39:13;;;;;;;;;2.33;1.00;;;;;14.19;100.00;100691.34;5093000;27;54938;-75
2022/11/09 06:41:39;;;;;;;;;1.33;0.00;;;;;14.15;100.00;100684.28;5093667;27;69458;-76
2022/11/09 06:44:04;;;;;;;;;0.00;0.00;;;;;14.21;100.00;100700.19;5090313;27;60492;-74
2022/11/09 06:46:30;;;;;;;;;0.00;0.00;;;;;14.17;100.00;100698.47;5086047;27;45491;-75
2022/11/09 06:48:56;;;;;;;;;2.00;0.00;;;;;14.20;100.00;100702.84;5094358;27;46479;-76
2022/11/09 06:51:21;;;;;;;;;2.00;1.00;;;;;14.19;100.00;100706.41;5093909;27;67241;-75
2022/11/09 06:53:46;;;;;;;;;1.00;0.00;;;;;14.19;100.00;100711.72;5095394;27;45448;-75
2022/11/09 06:56:12;;;;;;;;;3.00;0.00;;;;;14.24;100.00;100712.56;5093378;27;54378;-75
2022/11/09 06:58:37;;;;;;;;;0.33;0.00;;;;;14.26;100.00;100716.09;5094021;27;67612;-75
2022/11/09 07:01:17;;;;;;;;;0.67;0.00;;;;;14.31;100.00;100719.59;5076461;27;45199;-76
2022/11/09 07:03:42;;;;;;;;;1.00;1.00;;;;;14.27;100.00;100709.88;5093981;27;45687;-74
2022/11/09 07:06:10;;;;;;;;;1.33;0.00;;;;;14.31;100.00;100731.09;5082047;27;57386;-74
2022/11/09 07:08:36;;;;;;;;;4.00;1.00;;;;;14.32;100.00;100726.66;5080337;27;45817;-75
2022/11/09 07:11:12;;;;;;;;;2.00;0.00;;;;;14.34;100.00;100732.88;5082697;27;45247;-75
2022/11/09 07:13:38;;;;;;;;;0.00;0.00;;;;;14.35;100.00;100742.59;5081917;27;45400;-75
2022/11/09 07:16:05;;;;;;;;;1.00;1.00;;;;;14.29;100.00;100730.25;5078613;27;45649;-74
2022/11/09 07:18:30;;;;;;;;;2.00;2.00;;;;;14.37;100.00;100744.34;5084144;27;46002;-73
2022/11/09 07:20:56;;;;;;;;;5.00;1.00;;;;;14.34;100.00;100738.19;5087391;27;45535;-74
2022/11/09 07:23:21;;;;;;;;;4.00;2.00;;;;;14.38;100.00;100739.91;5094152;27;61610;-75
2022/11/09 07:25:46;;;;;;;;;2.33;1.00;;;;;14.34;100.00;100736.41;5095929;27;50987;-74
2022/11/09 07:28:12;;;;;;;;;4.00;2.00;;;;;14.40;100.00;100749.66;5097523;27;67860;-75
2022/11/09 07:30:38;;;;;;;;;3.00;2.00;;;;;14.45;100.00;100752.28;5095650;27;45419;-75
2022/11/09 07:33:12;;;;;;;;;3.00;1.00;;;;;14.48;100.00;100751.41;5098055;27;45417;-74
2022/11/09 07:35:37;;;;;;;;;1.00;1.00;;;;;14.49;100.00;100756.72;5086235;27;46243;-75
2022/11/09 07:38:03;;;;;;;;;3.33;1.00;;;;;14.51;100.00;100768.22;5090592;27;46365;-74
2022/11/09 07:40:29;;;;;;;;;6.00;2.00;;;;;14.51;100.00;100765.56;5089704;27;62475;-74
2022/11/09 07:43:01;;;;;;;;;6.00;1.00;;;;;14.50;100.00;100761.16;5094780;27;45400;-75
2022/11/09 07:45:28;;;;;;;;;3.00;1.00;;;;;14.55;100.00;100769.09;5096922;27;45472;-73
2022/11/09 07:47:55;;;;;;;;;1.67;1.00;;;;;14.60;100.00;100773.50;5097062;27;46397;-74
2022/11/09 07:50:20;;;;;;;;;1.33;1.33;;;;;14.59;100.00;100769.03;5093755;27;45506;-74
2022/11/09 07:52:45;;;;;;;;;4.33;3.00;;;;;14.61;100.00;100755.75;5090506;27;64989;-74
2022/11/09 07:55:11;;;;;;;;;4.33;1.00;;;;;14.67;100.00;100775.19;5088444;27;55869;-74
2022/11/09 07:57:36;;;;;;;;;2.00;2.00;;;;;14.65;100.00;100761.06;5094503;27;71735;-75
2022/11/09 08:00:02;;;;;;;;;1.00;1.00;;;;;14.67;100.00;100767.22;5095121;27;45605;-74
2022/11/09 08:02:28;;;;;;;;;3.33;2.00;;;;;14.71;100.00;100775.19;5094805;27;45495;-75
2022/11/09 08:04:53;;;;;;;;;1.67;1.00;;;;;14.66;100.00;100764.59;5095239;27;55081;-74
2022/11/09 08:07:18;;;;;;;;;2.00;1.00;;;;;14.68;100.00;100776.06;5095357;27;46313;-75
2022/11/09 08:09:44;;;;;;;;;1.67;1.00;;;;;14.70;100.00;100776.06;5092372;27;64893;-75
2022/11/09 08:12:09;;;;;;;;;2.00;2.00;;;;;14.74;100.00;100783.13;5084324;27;45367;-74
2022/11/09 08:14:34;;;;;;;;;1.00;1.00;;;;;14.71;100.00;100778.72;5088947;27;45506;-74
2022/11/09 08:17:00;;;;;;;;;4.33;1.33;;;;;14.74;100.00;100785.78;5088074;27;60981;-74
2022/11/09 08:19:25;;;;;;;;;1.00;1.00;;;;;14.78;100.00;100791.06;5094288;27;68379;-74
2022/11/09 08:21:56;;;;;;;;;1.00;1.00;;;;;14.76;100.00;100782.25;5092129;27;59690;-74
2022/11/09 08:24:21;;;;;;;;;1.33;1.33;;;;;14.79;100.00;100789.28;5090098;27;46763;-74
2022/11/09 08:26:46;;;;;;;;;3.00;1.00;;;;;14.80;100.00;100791.94;5087091;27;54970;-74
2022/11/09 08:29:14;;;;;;;;;1.00;1.00;;;;;14.87;100.00;100795.44;5089305;27;69045;-74
2022/11/09 08:31:39;;;;;;;;;2.00;0.00;;;;;14.89;100.00;100802.50;5090674;27;45464;-74
2022/11/09 08:34:05;;;;;;;;;1.00;1.00;;;;;14.90;100.00;100800.72;5091967;27;45433;-74
2022/11/09 08:36:31;;;;;;;;;3.00;2.00;;;;;14.87;100.00;100806.97;5086184;27;64254;-73
2022/11/09 08:38:58;;;;;;;;;2.33;2.00;;;;;14.84;100.00;100803.44;5088990;27;45563;-74
2022/11/09 08:41:23;;;;;;;;;2.67;1.33;;;;;14.87;100.00;100806.09;5090093;27;45324;-75
2022/11/09 08:43:49;;;;;;;;;1.00;0.33;;;;;14.89;100.00;100814.91;5088601;27;53348;-74
2022/11/09 08:46:14;;;;;;;;;4.67;2.00;;;;;14.90;100.00;100814.03;5088046;27;69553;-74
2022/11/09 08:48:39;;;;;;;;;2.67;1.00;;;;;14.89;100.00;100813.16;5086032;27;45487;-74
2022/11/09 08:51:05;;;;;;;;;1.67;1.33;;;;;14.94;100.00;100829.06;5089757;27;45711;-74
2022/11/09 08:53:30;;;;;;;;;3.33;1.00;;;;;14.94;100.00;100821.09;5089363;27;59898;-76
2022/11/09 08:55:56;;;;;;;;;3.00;1.00;;;;;14.99;100.00;100816.63;5088523;27;45509;-74
2022/11/09 08:58:21;;;;;;;;;1.67;1.00;;;;;14.98;100.00;100820.19;5084106;27;45439;-74
2022/11/09 09:00:47;;;;;;;;;3.67;1.33;;;;;15.06;100.00;100823.66;5087846;27;45420;-73
2022/11/09 09:03:12;;;;;;;;;4.33;0.67;;;;;15.11;100.00;100827.16;5093628;27;45634;-74
2022/11/09 09:05:38;;;;;;;;;2.00;1.00;;;;;15.17;100.00;100834.22;5090850;27;66925;-74
2022/11/09 09:08:04;;;;;;;;;1.00;1.00;;;;;15.23;100.00;100838.59;5094692;27;59466;-74
2022/11/09 09:10:31;;;;;;;;;0.00;0.00;;;;;15.33;100.00;100837.63;5089562;27;45330;-74
2022/11/09 09:12:56;;;;;;;;;3.33;1.00;;;;;15.38;100.00;100850.00;5095593;27;45663;-74
2022/11/09 09:15:22;;;;;;;;;6.33;0.00;;;;;15.44;100.00;100843.72;5094577;27;45465;-74
2022/11/09 09:17:47;;;;;;;;;2.00;1.00;;;;;15.52;100.00;100857.88;5094053;27;45440;-73
2022/11/09 09:20:13;;;;;;;;;5.00;1.00;;;;;15.56;100.00;100846.31;5084193;27;63036;-75
2022/11/09 09:22:39;;;;;;;;;1.00;1.00;;;;;15.60;100.00;100852.47;5086761;27;45475;-78
2022/11/09 09:25:05;;;;;;;;;0.00;0.00;;;;;15.59;100.00;100845.38;5091092;27;48623;-79
2022/11/09 09:27:30;;;;;;;;;3.00;1.67;;;;;15.59;100.00;100859.56;5085268;27;45439;-79
2022/11/09 09:29:56;;;;;;;;;2.67;1.00;;;;;15.61;100.00;100857.78;5108345;27;50746;-80
2022/11/09 09:32:21;;;;;;;;;2.00;0.67;;;;;15.58;100.00;100857.81;5095297;27;45576;-78
2022/11/09 09:34:46;;;;;;;;;1.00;1.00;;;;;15.60;100.00;100864.00;5089612;27;46940;-77
2022/11/09 09:37:12;;;;;;;;;0.67;0.00;;;;;15.60;100.00;100866.66;5095750;27;53845;-78
2022/11/09 09:39:37;;;;;;;;;0.00;0.00;;;;;15.59;100.00;100866.69;5094389;27;45309;-80
2022/11/09 09:42:30;;;;;;;;;3.00;1.00;;;;;15.69;100.00;100871.06;5094724;27;61575;-80
2022/11/09 09:45:01;;;;;;;;;1.00;0.33;;;;;15.76;100.00;100862.09;5086195;27;46578;-79
2022/11/09 09:47:37;;;;;;;;;1.00;1.00;;;;;15.82;100.00;100858.50;5072770;27;45484;-80
2022/11/09 09:50:07;;;;;;;;;0.67;0.67;;;;;15.81;100.00;100844.31;5092453;27;45513;-79
2022/11/09 09:52:49;;;;;;;;;0.00;0.00;;;;;15.92;100.00;100865.50;5095061;27;45595;-78
2022/11/09 09:55:29;;;;;;;;;2.00;0.33;;;;;15.91;100.00;100872.59;5104015;27;46420;-78
2022/11/09 09:57:58;;;;;;;;;1.00;1.00;;;;;15.85;100.00;100855.81;5075584;27;46140;-81
2022/11/09 10:00:25;;;;;;;;;2.67;1.00;;;;;15.86;100.00;100869.09;5094401;27;45484;-80
2022/11/09 10:02:51;;;;;;;;;6.33;2.00;;;;;15.89;100.00;100874.41;5085453;27;45533;-78
2022/11/09 10:05:18;;;;;;;;;0.00;0.00;;;;;15.97;100.00;100896.50;5085553;27;45763;-81
2022/11/09 10:08:09;;;;;;;;;0.00;0.00;;;;;15.97;100.00;100900.94;5079976;27;45532;-80
2022/11/09 10:10:46;;;;;;;;;2.33;0.67;;;;;15.94;100.00;100893.88;5071288;27;45469;-79
2022/11/09 10:13:29;;;;;;;;;1.00;1.00;;;;;15.98;100.00;100910.72;5090206;27;45173;-81
2022/11/09 10:16:26;;;;;;;;;2.00;0.00;;;;;15.95;100.00;100898.31;5094108;27;45685;-77
2022/11/09 10:19:10;;;;;;;;;6.33;0.33;;;;;16.04;100.00;100915.09;5094125;27;45468;-78
2022/11/09 10:21:52;;;;;;;;;1.00;0.67;;;;;16.09;100.00;100918.63;5093759;27;45575;-77
2022/11/09 10:24:29;;;;;;;;;1.00;1.00;;;;;16.14;100.00;100917.66;5092741;27;45462;-77
2022/11/09 10:26:59;;;;;;;;;2.00;1.00;;;;;16.11;100.00;100908.81;5089706;27;48805;-77
2022/11/09 10:29:29;;;;;;;;;2.33;1.00;;;;;16.12;100.00;100916.78;5062993;27;45374;-76
2022/11/09 10:32:00;;;;;;;;;2.00;0.00;;;;;16.16;100.00;100929.19;5094446;27;45402;-77
2022/11/09 10:34:32;;;;;;;;;0.00;0.00;;;;;16.25;100.00;100938.88;5092561;27;45488;-77
2022/11/09 10:37:21;;;;;;;;;2.00;0.33;;;;;16.33;100.00;100944.09;5092271;27;45951;-75
2022/11/09 10:39:51;;;;;;;;;1.67;0.00;;;;;16.36;100.00;100947.63;5093961;27;45762;-76
2022/11/09 10:42:17;;;;;;;;;0.00;0.00;;;;;16.40;100.00;100945.78;5086089;27;45445;-76
2022/11/09 10:44:42;;;;;;;;;3.67;0.33;;;;;16.45;100.00;100949.28;5093145;27;45663;-77
2022/11/09 10:47:15;;;;;;;;;0.67;0.00;;;;;16.54;100.00;100949.19;5093452;27;72476;-76
2022/11/09 10:49:41;;;;;;;;;0.00;0.00;;;;;16.59;100.00;100960.69;5088644;27;45468;-76
2022/11/09 10:52:30;;;;;;;;;2.67;0.67;;;;;16.64;100.00;100950.84;5102996;27;45600;-74
2022/11/09 10:55:15;;;;;;;;;1.33;1.00;;;;;16.65;100.00;100947.28;5092769;27;45564;-75
2022/11/09 10:58:13;;;;;;;;;4.00;2.00;;;;;16.71;100.00;100947.22;5087679;27;48029;-74
2022/11/09 11:01:04;;;;;;;;;3.00;1.00;;;;;16.84;100.00;100957.75;5087879;27;46375;-76
2022/11/09 11:03:34;;;;;;;;;1.00;1.00;;;;;16.86;100.00;100967.50;5085661;27;45497;-76
2022/11/09 11:06:00;;;;;;;;;1.00;1.00;;;;;16.93;100.00;100960.28;5094261;27;45565;-76
2022/11/09 11:08:35;;;;;;;;;0.67;0.00;;;;;16.95;100.00;100951.38;5090259;27;46669;-77
2022/11/09 11:11:14;;;;;;;;;3.67;0.33;;;;;17.01;100.00;100951.28;5101633;27;45462;-76
2022/11/09 11:13:40;;;;;;;;;0.00;0.00;;;;;17.10;100.00;100954.72;5101673;27;45247;-76
2022/11/09 11:16:24;;;;;;;;;3.33;0.00;;;;;17.26;100.00;100962.50;5087748;27;45588;-77
2022/11/09 11:18:49;;;;;;;;;1.00;0.00;;;;;17.38;100.00;100950.78;5094557;27;47218;-76
2022/11/09 11:21:17;;;;;;;;;2.00;0.00;;;;;17.44;100.00;100955.13;5108523;27;45346;-74
2022/11/09 11:23:43;;;;;;;;;2.00;0.67;;;;;17.52;100.00;100951.44;5095923;27;45463;-76
2022/11/09 11:26:15;;;;;;;;;1.00;1.00;;;;;17.63;100.00;100948.59;5100380;27;52308;-75
2022/11/09 11:28:55;;;;;;;;;4.00;0.67;;;;;17.69;100.00;100945.84;5097523;27;45531;-76
2022/11/09 11:31:21;;;;;;;;;3.00;0.00;;;;;17.69;100.00;100953.84;5098445;27;45367;-77
2022/11/09 11:33:46;;;;;;;;;1.00;1.00;;;;;17.60;100.00;100943.31;5099452;27;45471;-77